Time;durP1;ratioP1;P1;durP2;ratioP2;P2;SDS_P1;SDS_P2;PMS_P1;PMS_P2;Temp;Humidity;BMP_temperature;BMP_pressure;BME280_temperature;BME280_humidity;BME280_pressure;Samples;Min_cycle;Max_cycle;Signal;HPM_P1;HPM_P2
2021/11/09 00:01:37;;;;;;;16.40;10.23;;;;;;;9.20;77.71;101123.16;10290728;28;24373;-57
2021/11/09 00:06:44;;;;;;;9.88;8.50;;;;;;;9.11;77.90;101123.72;10284740;28;20297;-58
2021/11/09 00:11:46;;;;;;;10.75;9.05;;;;;;;9.03;78.32;101121.50;10281286;28;20357;-59
2021/11/09 00:16:48;;;;;;;14.10;9.45;;;;;;;8.99;78.77;101125.31;10289066;28;20120;-60
2021/11/09 00:21:49;;;;;;;14.88;9.15;;;;;;;8.91;77.98;101124.88;10274752;28;20125;-58
2021/11/09 00:26:51;;;;;;;12.48;8.73;;;;;;;8.80;78.21;101128.19;10280945;28;20456;-59
2021/11/09 00:31:52;;;;;;;12.30;8.30;;;;;;;8.71;78.79;101125.19;10284626;28;20046;-57
2021/11/09 00:36:54;;;;;;;15.50;9.45;;;;;;;8.66;78.73;101130.78;10286214;28;20054;-58
2021/11/09 00:41:56;;;;;;;15.13;8.95;;;;;;;8.61;78.92;101122.25;10282287;28;20683;-58
2021/11/09 00:46:58;;;;;;;11.50;9.32;;;;;;;8.59;78.50;101126.81;10283408;28;20137;-58
2021/11/09 00:52:01;;;;;;;11.57;9.70;;;;;;;8.64;78.33;101141.50;10286526;28;20091;-58
2021/11/09 00:57:03;;;;;;;11.93;8.30;;;;;;;8.58;78.67;101146.31;10270915;28;20056;-57
2021/11/09 01:02:06;;;;;;;10.52;8.40;;;;;;;8.62;78.76;101140.75;10281577;28;20052;-57
2021/11/09 01:07:08;;;;;;;11.88;8.32;;;;;;;8.58;78.68;101139.19;10284131;28;20046;-60
2021/11/09 01:12:10;;;;;;;12.38;9.18;;;;;;;8.51;78.90;101144.94;10272442;28;20669;-60
2021/11/09 01:17:12;;;;;;;14.80;9.25;;;;;;;8.48;79.13;101148.63;10283845;28;20161;-63
2021/11/09 01:22:14;;;;;;;16.10;9.40;;;;;;;8.54;79.24;101144.78;10274887;28;20054;-58
2021/11/09 01:27:20;;;;;;;15.52;9.98;;;;;;;8.44;79.23;101150.63;10284897;28;20050;-58
2021/11/09 01:32:22;;;;;;;13.38;9.98;;;;;;;8.44;79.48;101149.78;10281951;28;20066;-59
2021/11/09 01:37:25;;;;;;;13.02;9.52;;;;;;;8.36;79.69;101152.84;10281360;28;20039;-59
2021/11/09 01:42:27;;;;;;;13.23;9.13;;;;;;;8.31;79.52;101155.72;10286889;28;20523;-64
2021/11/09 01:47:28;;;;;;;16.52;9.73;;;;;;;8.34;79.89;101152.03;10290938;28;20077;-59
2021/11/09 01:52:33;;;;;;;16.50;11.02;;;;;;;8.25;79.56;101144.63;10287177;28;20060;-60
2021/11/09 01:57:35;;;;;;;14.77;9.32;;;;;;;8.20;79.43;101146.69;10284680;28;20629;-59
2021/11/09 02:02:36;;;;;;;17.15;9.90;;;;;;;8.12;80.17;101149.75;10272373;28;20539;-58
2021/11/09 02:07:52;;;;;;;14.15;10.55;;;;;;;8.11;80.22;101158.66;10280914;28;20046;-59
2021/11/09 02:12:56;;;;;;;14.32;9.07;;;;;;;8.02;80.70;101159.19;10265221;28;20054;-58
2021/11/09 02:17:58;;;;;;;15.85;10.88;;;;;;;8.02;79.53;101145.91;10280671;28;20039;-58
2021/11/09 02:23:01;;;;;;;14.32;9.85;;;;;;;7.87;80.23;101152.91;10283014;28;20054;-59
2021/11/09 02:28:03;;;;;;;14.68;10.32;;;;;;;7.84;79.89;101151.28;10273650;28;20583;-57
2021/11/09 02:33:05;;;;;;;17.27;9.38;;;;;;;7.79;80.01;101154.19;10274485;28;20058;-58
2021/11/09 02:38:07;;;;;;;15.68;9.77;;;;;;;7.74;79.64;101161.50;10264597;28;20051;-58
2021/11/09 02:43:11;;;;;;;14.07;9.45;;;;;;;7.67;79.86;101152.22;10282765;28;20129;-59
2021/11/09 02:48:21;;;;;;;12.60;9.95;;;;;;;7.63;79.88;101155.94;10281413;28;20043;-59
2021/11/09 02:53:44;;;;;;;12.88;9.57;;;;;;;7.54;79.72;101159.09;10279454;28;20064;-58
2021/11/09 03:08:57;;;;;;;13.80;9.05;;;;;;;7.39;79.42;101150.16;10276356;28;20050;-58
2021/11/09 03:14:00;;;;;;;13.15;8.38;;;;;;;7.34;79.13;101153.06;10279894;28;20101;-57
2021/11/09 03:19:27;;;;;;;12.13;8.95;;;;;;;7.31;79.46;101174.41;10276269;28;20078;-58
2021/11/09 03:40:55;;;;;;;11.88;8.75;;;;;;;7.25;80.38;101180.00;10285869;28;20061;-60
2021/11/09 03:45:57;;;;;;;14.65;9.35;;;;;;;7.20;80.13;101180.25;10287535;28;20455;-58
2021/11/09 03:51:00;;;;;;;10.93;9.13;;;;;;;7.20;80.09;101174.94;10285707;28;20722;-59
2021/11/09 03:56:19;;;;;;;12.15;9.45;;;;;;;7.13;80.04;101180.66;10271339;28;20105;-58
2021/11/09 04:01:29;;;;;;;12.48;9.98;;;;;;;7.21;80.30;101194.38;10282683;28;20046;-58
2021/11/09 04:06:42;;;;;;;13.02;9.00;;;;;;;7.29;80.38;101193.97;10286664;28;20046;-59
2021/11/09 04:12:02;;;;;;;13.10;9.02;;;;;;;7.29;80.08;101188.66;10283588;28;20078;-59
2021/11/09 04:17:13;;;;;;;10.18;7.88;;;;;;;7.36;80.00;101198.84;10270334;28;20098;-58
2021/11/09 04:28:25;;;;;;;12.38;9.65;;;;;;;7.28;80.14;101209.00;10284433;28;20050;-58
2021/11/09 04:38:44;;;;;;;12.85;9.80;;;;;;;7.17;79.72;101213.97;10282987;28;20102;-59
2021/11/09 05:09:53;;;;;;;14.38;8.10;;;;;;;7.28;80.06;101216.94;10283920;28;20586;-59
2021/11/09 05:14:52;;;;;;;10.50;8.43;;;;;;;7.28;79.49;101229.31;10279702;28;20066;-59
2021/11/09 05:19:54;;;;;;;15.18;8.60;;;;;;;7.21;80.01;101226.13;10279527;28;20062;-59
2021/11/09 05:24:55;;;;;;;13.77;8.30;;;;;;;7.18;79.96;101237.75;10279734;28;20512;-59
2021/11/09 05:29:57;;;;;;;13.52;9.15;;;;;;;7.12;79.54;101239.84;10277728;28;20070;-65
2021/11/09 05:34:59;;;;;;;13.98;8.90;;;;;;;6.92;79.25;101241.69;10281154;28;20129;-59
2021/11/09 05:40:04;;;;;;;12.02;8.98;;;;;;;6.88;79.84;101234.84;10277485;28;20047;-59
2021/11/09 05:45:09;;;;;;;13.23;9.98;;;;;;;6.86;79.57;101252.56;10281726;28;20046;-61
2021/11/09 05:50:11;;;;;;;17.70;11.80;;;;;;;6.86;79.55;101249.91;10261522;28;20046;-58
2021/11/09 05:55:13;;;;;;;16.58;10.98;;;;;;;6.76;79.58;101236.28;10282234;28;20109;-58
2021/11/09 06:00:14;;;;;;;12.80;10.10;;;;;;;6.83;79.46;101263.31;10249303;28;20194;-58
2021/11/09 06:05:16;;;;;;;13.55;8.82;;;;;;;6.75;79.77;101262.84;10274865;28;20717;-58
2021/11/09 06:10:17;;;;;;;14.82;8.55;;;;;;;6.77;80.40;101276.84;10283792;28;20197;-66
2021/11/09 06:15:19;;;;;;;14.45;9.70;;;;;;;6.78;79.65;101281.22;10280013;28;20535;-58
2021/11/09 06:20:21;;;;;;;11.75;8.60;;;;;;;6.87;79.35;101291.34;10273761;28;20492;-59
2021/11/09 06:25:24;;;;;;;9.32;6.93;;;;;;;6.91;79.13;101282.31;10281193;28;20062;-59
2021/11/09 06:30:25;;;;;;;8.90;6.97;;;;;;;7.01;79.29;101298.59;10256015;28;20050;-59
2021/11/09 06:35:27;;;;;;;8.10;5.80;;;;;;;7.00;79.00;101311.00;10275466;28;20421;-59
2021/11/09 06:40:30;;;;;;;11.18;6.47;;;;;;;6.97;79.42;101311.16;10262882;28;20117;-59
2021/11/09 06:45:33;;;;;;;9.60;5.68;;;;;;;7.03;79.59;101321.44;10279691;28;20129;-59
2021/11/09 06:50:35;;;;;;;11.60;6.30;;;;;;;7.04;79.64;101325.81;10282552;28;20057;-57
2021/11/09 06:55:38;;;;;;;9.82;6.63;;;;;;;7.07;79.25;101330.94;10278166;28;20042;-56
2021/11/09 07:00:39;;;;;;;11.00;6.70;;;;;;;7.16;79.56;101334.06;10276069;28;20069;-57
2021/11/09 07:05:41;;;;;;;11.25;6.90;;;;;;;7.11;79.47;101333.44;10282521;28;20048;-57
2021/11/09 07:10:44;;;;;;;9.15;6.22;;;;;;;7.08;79.91;101345.88;10281079;28;20053;-57
2021/11/09 07:15:46;;;;;;;8.35;6.53;;;;;;;7.04;80.12;101347.00;10278388;28;20061;-59
2021/11/09 07:20:50;;;;;;;11.10;7.78;;;;;;;7.05;79.81;101353.13;10278494;28;20066;-60
2021/11/09 07:25:52;;;;;;;12.02;7.53;;;;;;;7.15;79.81;101364.16;10277115;28;20045;-59
2021/11/09 07:30:58;;;;;;;11.70;8.27;;;;;;;7.18;78.26;101369.28;10270189;28;20050;-60
2021/11/09 07:36:00;;;;;;;14.05;8.75;;;;;;;7.21;77.87;101369.16;10284796;28;20635;-59
2021/11/09 07:41:01;;;;;;;12.15;8.63;;;;;;;7.30;77.12;101368.69;10271312;28;20075;-59
2021/11/09 07:46:04;;;;;;;13.32;10.00;;;;;;;7.32;76.91;101376.56;10274431;28;20054;-59
2021/11/09 07:51:05;;;;;;;10.63;7.90;;;;;;;7.49;76.87;101373.06;10279131;28;20189;-60
2021/11/09 07:56:19;;;;;;;8.70;7.25;;;;;;;7.43;76.30;101364.50;10281892;28;20062;-59
2021/11/09 08:01:33;;;;;;;10.82;7.18;;;;;;;7.68;75.80;101371.22;10262574;28;20197;-60
2021/11/09 08:11:44;;;;;;;8.27;6.63;;;;;;;7.47;77.17;101372.31;10285921;28;20135;-60
2021/11/09 08:16:49;;;;;;;9.57;6.53;;;;;;;7.36;76.42;101378.97;10288153;28;20944;-60
2021/11/09 08:21:52;;;;;;;;;;;;;;;7.32;77.21;101388.00;10281892;28;20129;-64
2021/11/09 08:26:56;;;;;;;6.95;5.78;;;;;;;7.49;76.56;101394.25;10268030;28;19985;-59
2021/11/09 08:31:59;;;;;;;7.68;6.03;;;;;;;7.44;77.16;101392.69;10285019;28;20096;-60
2021/11/09 08:37:01;;;;;;;6.75;5.78;;;;;;;7.57;76.98;101386.81;10281054;28;20130;-59
2021/11/09 08:47:06;;;;;;;9.23;6.68;;;;;;;7.97;75.69;101395.38;10284615;28;20292;-59
2021/11/09 08:52:12;;;;;;;9.75;7.75;;;;;;;8.19;74.56;101399.59;10286888;28;20058;-60
2021/11/09 09:07:55;;;;;;;9.32;7.93;;;;;;;8.91;71.97;101395.72;10207537;23;20882;-58
2021/11/09 09:12:57;;;;;;;15.20;7.75;;;;;;;9.19;70.88;101396.88;10197583;28;20048;-58
2021/11/09 09:17:59;;;;;;;10.40;7.93;;;;;;;9.46;69.66;101381.13;10198747;28;20108;-58
2021/11/09 09:23:08;;;;;;;10.50;7.93;;;;;;;10.10;68.09;101372.94;10199603;28;20043;-56
2021/11/09 09:28:48;;;;;;;10.35;8.07;;;;;;;10.89;65.23;101395.59;10196904;28;20409;-55
2021/11/09 09:55:34;;;;;;;9.07;7.07;;;;;;;16.95;45.52;101380.81;10232996;28;20054;-56
2021/11/09 10:00:37;;;;;;;9.75;6.60;;;;;;;16.55;47.17;101383.47;10240212;28;20051;-57
2021/11/09 10:05:41;;;;;;;12.17;7.07;;;;;;;16.96;46.04;101371.75;10239294;28;20464;-56
2021/11/09 10:10:44;;;;;;;8.48;6.90;;;;;;;17.70;43.99;101371.38;10235718;28;20180;-57
2021/11/09 10:15:48;;;;;;;8.33;6.57;;;;;;;19.38;41.50;101377.69;10233182;28;20142;-57
2021/11/09 10:20:56;;;;;;;11.65;7.35;;;;;;;22.69;34.51;101369.56;10250637;28;20060;-58
2021/11/09 10:26:09;;;;;;;12.02;6.95;;;;;;;24.39;31.82;101331.34;10202790;28;20103;-56
2021/11/09 10:31:15;;;;;;;12.07;6.90;;;;;;;25.86;29.49;101351.19;10198620;28;20162;-57
2021/11/09 10:36:27;;;;;;;7.75;6.78;;;;;;;26.43;28.81;101368.38;10204942;28;20047;-55
2021/11/09 10:41:28;;;;;;;9.45;6.35;;;;;;;27.06;28.04;101362.78;10239628;28;20055;-57
2021/11/09 10:46:30;;;;;;;10.63;6.50;;;;;;;27.39;26.20;101342.91;10239475;28;20225;-57
2021/11/09 10:51:58;;;;;;;10.82;6.55;;;;;;;28.50;24.83;101352.25;10237997;28;20058;-55
2021/11/09 10:57:19;;;;;;;12.27;6.20;;;;;;;29.35;24.05;101347.66;10238253;28;20042;-56
2021/11/09 11:08:02;;;;;;;9.27;5.93;;;;;;;30.00;22.09;101343.75;10235025;28;20059;-56
2021/11/09 11:13:20;;;;;;;7.88;5.28;;;;;;;30.53;21.18;101343.19;10233408;28;20057;-58
2021/11/09 11:18:34;;;;;;;8.35;6.10;;;;;;;31.06;20.88;101340.81;10249157;28;20049;-57
2021/11/09 11:23:37;;;;;;;7.85;5.13;;;;;;;31.63;21.49;101338.47;10214747;28;20422;-58
2021/11/09 11:28:44;;;;;;;8.02;5.57;;;;;;;31.89;19.56;101328.88;10195101;28;20051;-55
2021/11/09 11:33:48;;;;;;;7.18;5.13;;;;;;;32.69;18.70;101304.44;10198983;28;20055;-62
2021/11/09 11:38:54;;;;;;;6.65;4.20;;;;;;;33.69;18.06;101322.44;10233134;28;20058;-59
2021/11/09 11:43:57;;;;;;;5.95;4.07;;;;;;;33.88;17.42;101309.22;10244378;28;20130;-58
2021/11/09 11:49:02;;;;;;;6.32;4.43;;;;;;;34.57;16.96;101310.69;10248123;28;20445;-57
2021/11/09 11:54:07;;;;;;;3.97;3.33;;;;;;;34.66;15.47;101296.13;10247147;28;20046;-55
2021/11/09 11:59:23;;;;;;;5.47;3.90;;;;;;;34.95;15.97;101290.38;10250080;28;20059;-55
2021/11/09 12:04:40;;;;;;;4.70;2.47;;;;;;;35.12;15.49;101281.97;10244958;28;20468;-56
2021/11/09 12:09:45;;;;;;;4.45;2.80;;;;;;;35.10;14.70;101261.19;10237915;28;20074;-58
2021/11/09 12:14:48;;;;;;;6.30;3.28;;;;;;;34.34;15.64;101266.50;10203649;28;20150;-59
2021/11/09 12:19:50;;;;;;;3.67;2.80;;;;;;;35.40;16.70;101255.06;10204755;28;20137;-55
2021/11/09 12:24:55;;;;;;;4.53;3.50;;;;;;;35.14;15.39;101254.84;10205657;28;20461;-58
2021/11/09 12:29:58;;;;;;;3.83;2.50;;;;;;;35.51;14.47;101242.97;10211297;28;21077;-56
2021/11/09 12:35:11;;;;;;;4.90;3.00;;;;;;;35.63;14.09;101240.00;10247814;28;20046;-56
2021/11/09 12:40:34;;;;;;;4.57;2.08;;;;;;;35.75;14.33;101226.78;10245166;28;20515;-58
2021/11/09 12:45:37;;;;;;;4.47;2.22;;;;;;;35.43;14.00;101213.03;10245127;28;20137;-57
2021/11/09 12:50:46;;;;;;;4.22;2.08;;;;;;;35.70;13.83;101190.75;10211369;28;20550;-59
2021/11/09 12:56:00;;;;;;;3.63;2.05;;;;;;;35.99;14.18;101198.66;10222505;28;20061;-59
2021/11/09 13:01:26;;;;;;;4.32;2.00;;;;;;;35.36;13.81;101190.31;10243718;28;20039;-56
2021/11/09 13:06:43;;;;;;;3.45;2.40;;;;;;;35.37;14.28;101180.88;10239567;28;20139;-62
2021/11/09 13:11:50;;;;;;;5.22;1.90;;;;;;;34.88;14.94;101174.44;10247615;28;20125;-56
2021/11/09 13:16:52;;;;;;;2.45;1.90;;;;;;;34.08;14.94;101160.38;10244306;28;20054;-59
2021/11/09 13:22:08;;;;;;;4.68;2.20;;;;;;;32.64;16.57;101158.25;10246932;28;20467;-56
2021/11/09 13:27:11;;;;;;;4.75;1.80;;;;;;;32.91;16.12;101157.63;10205411;28;20055;-57
2021/11/09 13:32:15;;;;;;;4.60;2.17;;;;;;;32.55;16.66;101173.53;10206163;28;20055;-55
2021/11/09 13:37:17;;;;;;;5.63;2.22;;;;;;;32.56;16.30;101169.69;10207822;28;20455;-56
2021/11/09 13:42:21;;;;;;;5.45;1.63;;;;;;;32.59;17.12;101169.19;10205517;28;20062;-61
2021/11/09 13:47:32;;;;;;;6.70;1.92;;;;;;;32.26;17.13;101165.28;10205367;28;20354;-57
2021/11/09 13:52:40;;;;;;;2.58;1.40;;;;;;;31.17;16.75;101167.63;10204125;28;20095;-57
2021/11/09 13:57:42;;;;;;;2.88;0.93;;;;;;;29.31;17.28;101166.31;10202351;28;20055;-57
2021/11/09 14:02:55;;;;;;;2.30;0.88;;;;;;;23.87;22.53;101153.72;10201026;28;20662;-55
2021/11/09 14:18:19;;;;;;;3.03;1.38;;;;;;;26.10;21.44;101146.16;10196426;28;20134;-54
2021/11/09 14:23:43;;;;;;;6.50;2.60;;;;;;;25.27;22.21;101161.63;10193602;28;20063;-56
2021/11/09 14:28:45;;;;;;;2.42;1.10;;;;;;;24.47;23.37;101162.56;10189182;28;20138;-56
2021/11/09 14:33:51;;;;;;;5.25;2.33;;;;;;;24.27;23.76;101173.22;10195299;28;20138;-54
2021/11/09 14:39:16;;;;;;;3.40;2.00;;;;;;;23.51;24.62;101162.59;10195442;28;20398;-55
2021/11/09 14:44:20;;;;;;;2.95;1.45;;;;;;;23.22;24.59;101155.25;10224522;28;20752;-54
2021/11/09 14:49:36;;;;;;;3.20;1.17;;;;;;;22.54;26.61;101180.38;10234816;28;20066;-52
2021/11/09 14:54:45;;;;;;;3.78;1.30;;;;;;;20.31;28.82;101168.22;10229846;28;20035;-57
2021/11/09 15:00:01;;;;;;;3.38;1.50;;;;;;;18.30;32.20;101183.34;10230455;28;20113;-57
2021/11/09 15:05:04;;;;;;;3.75;1.60;;;;;;;17.06;34.59;101175.41;10248173;23;20406;-61
2021/11/09 15:10:26;;;;;;;4.25;1.45;;;;;;;16.31;36.46;101193.03;10321227;28;20052;-59
2021/11/09 15:31:35;;;;;;;5.22;2.13;;;;;;;14.59;40.28;101182.66;10344206;28;20160;-59
2021/11/09 15:41:50;;;;;;;3.90;1.80;;;;;;;14.03;41.62;101195.19;10343159;28;20097;-59
2021/11/09 15:46:55;;;;;;;6.00;2.40;;;;;;;13.73;43.61;101182.44;10341575;28;20076;-60
2021/11/09 15:51:57;;;;;;;4.63;2.10;;;;;;;13.47;43.92;101187.19;10345689;28;20061;-59
2021/11/09 15:57:20;;;;;;;3.25;2.45;;;;;;;13.16;44.38;101182.31;10341625;28;20136;-58
2021/11/09 16:02:22;;;;;;;3.60;2.13;;;;;;;12.94;45.83;101172.44;10342890;28;20127;-59
2021/11/09 16:07:25;;;;;;;5.75;5.15;;;;;;;12.84;46.83;101160.75;10330953;28;20538;-58
2021/11/09 16:12:28;;;;;;;4.80;3.03;;;;;;;12.72;47.79;101152.66;10343336;28;20097;-60
2021/11/09 16:17:29;;;;;;;4.90;2.92;;;;;;;12.69;47.82;101162.75;10344692;28;20133;-59
2021/11/09 16:22:34;;;;;;;6.32;3.65;;;;;;;12.54;48.28;101159.41;10347552;28;20189;-58
2021/11/09 16:27:35;;;;;;;5.22;2.90;;;;;;;12.44;49.64;101145.03;10340552;28;20096;-58
2021/11/09 16:32:44;;;;;;;5.45;4.35;;;;;;;12.36;50.00;101157.13;10352538;28;20112;-59
2021/11/09 16:37:46;;;;;;;6.72;4.30;;;;;;;12.21;49.48;101155.59;10351996;28;20095;-59
2021/11/09 16:42:52;;;;;;;5.65;4.43;;;;;;;12.20;50.60;101154.75;10353201;28;21681;-59
2021/11/09 16:48:04;;;;;;;8.75;4.43;;;;;;;12.16;51.08;101141.69;10351455;28;20080;-59
2021/11/09 16:53:08;;;;;;;8.10;5.50;;;;;;;12.02;51.26;101158.72;10346040;28;20049;-60
2021/11/09 18:22:43;;;;;;;5.85;4.50;;;;;;;10.88;57.41;101178.09;10343009;28;20131;-59
2021/11/09 18:27:47;;;;;;;5.85;4.40;;;;;;;10.81;57.71;101183.94;10347893;28;20113;-62
2021/11/09 18:32:49;;;;;;;6.00;4.43;;;;;;;10.79;57.95;101187.59;10327577;28;20126;-58
2021/11/09 18:37:53;;;;;;;8.82;5.20;;;;;;;10.86;58.55;101190.69;10330533;28;20831;-59
2021/11/09 18:42:54;;;;;;;9.20;6.07;;;;;;;10.87;57.90;101192.41;10337417;28;20229;-58
2021/11/09 18:48:00;;;;;;;9.88;6.97;;;;;;;10.77;57.87;101181.50;10337763;28;20037;-59
2021/11/09 18:53:02;;;;;;;7.45;5.80;;;;;;;10.59;58.62;101172.06;10345981;28;20045;-61
2021/11/09 18:58:03;;;;;;;8.27;4.93;;;;;;;10.41;58.68;101176.78;10343287;28;20127;-59
2021/11/09 19:03:06;;;;;;;5.72;4.18;;;;;;;10.30;59.14;101179.25;10339546;28;20060;-59
2021/11/09 19:08:08;;;;;;;6.82;3.88;;;;;;;10.20;59.42;101185.16;10335633;28;20132;-59
2021/11/09 19:13:10;;;;;;;8.23;5.10;;;;;;;10.02;59.56;101159.75;10339391;28;20049;-60
2021/11/09 19:18:17;;;;;;;6.18;3.95;;;;;;;10.07;59.24;101170.94;10338173;28;20104;-59
2021/11/09 19:23:18;;;;;;;5.57;3.92;;;;;;;10.00;59.60;101182.94;10342083;28;20052;-59
2021/11/09 19:28:23;;;;;;;7.97;5.22;;;;;;;9.89;60.03;101180.94;10345295;28;20065;-58
2021/11/09 19:33:25;;;;;;;6.13;4.15;;;;;;;9.84;59.79;101170.59;10354570;28;20057;-61
2021/11/09 19:38:27;;;;;;;8.00;5.88;;;;;;;9.80;60.09;101174.38;10355509;28;20073;-59
2021/11/09 19:43:29;;;;;;;4.95;4.45;;;;;;;9.77;60.60;101168.41;10359326;28;20077;-60
2021/11/09 19:48:32;;;;;;;7.28;4.72;;;;;;;9.73;60.28;101167.78;10355063;28;20056;-60
2021/11/09 19:53:34;;;;;;;6.95;4.35;;;;;;;9.64;60.49;101178.97;10353012;28;20148;-60
2021/11/09 19:58:39;;;;;;;6.10;4.03;;;;;;;9.59;61.29;101170.41;10355019;28;20128;-60
2021/11/09 20:03:44;;;;;;;5.25;4.75;;;;;;;9.58;60.50;101174.91;10354309;28;20050;-58
2021/11/09 20:08:47;;;;;;;7.45;4.95;;;;;;;9.48;61.07;101179.91;10358497;28;20060;-58
2021/11/09 20:13:50;;;;;;;7.85;4.28;;;;;;;9.38;61.19;101162.81;10361440;28;20139;-58
2021/11/09 20:18:51;;;;;;;4.22;3.80;;;;;;;9.36;61.48;101172.69;10363923;28;20088;-59
2021/11/09 20:23:54;;;;;;;4.57;3.97;;;;;;;9.36;62.40;101175.34;10364181;28;20064;-59
2021/11/09 20:28:56;;;;;;;6.35;4.70;;;;;;;9.31;62.04;101166.81;10364853;28;20057;-59
2021/11/09 20:33:58;;;;;;;7.57;6.30;;;;;;;9.25;61.58;101156.53;10367862;28;20457;-60
2021/11/09 20:38:59;;;;;;;8.23;6.53;;;;;;;9.24;62.29;101168.13;10363306;28;20088;-58
2021/11/09 20:44:01;;;;;;;6.90;5.53;;;;;;;9.22;62.44;101154.06;10362103;28;20045;-60
2021/11/09 20:49:03;;;;;;;7.53;5.63;;;;;;;9.26;62.37;101172.38;10365991;28;20149;-57
2021/11/09 20:54:05;;;;;;;7.70;5.10;;;;;;;9.36;63.75;101183.31;10369600;28;20485;-61
2021/11/09 20:59:07;;;;;;;7.15;5.50;;;;;;;9.38;62.73;101186.72;10364863;28;20049;-58
2021/11/09 21:04:08;;;;;;;9.50;6.10;;;;;;;9.34;63.39;101199.34;10364056;28;20094;-59
2021/11/09 21:09:10;;;;;;;6.50;5.63;;;;;;;9.14;63.43;101176.66;10325892;28;20506;-59
2021/11/09 21:18:21;;;;;;;7.75;6.72;;;;;;;9.10;63.63;101167.16;10319528;28;20110;-60
2021/11/09 21:19:34;;;;;;;10.43;7.63;;;;;;;9.01;63.45;101163.22;10363684;28;20050;-59
2021/11/09 21:24:36;;;;;;;7.75;6.15;;;;;;;8.92;63.40;101162.94;10361268;28;20600;-59
2021/11/09 21:29:56;;;;;;;7.22;5.40;;;;;;;8.72;63.89;101149.03;10364379;28;20050;-59
2021/11/09 21:35:13;;;;;;;6.82;4.95;;;;;;;8.83;63.63;101157.22;10362180;28;20068;-63
2021/11/09 21:40:21;;;;;;;6.47;5.88;;;;;;;8.81;63.37;101161.75;10363974;28;20057;-59
2021/11/09 21:45:23;;;;;;;6.55;5.00;;;;;;;8.69;64.23;101173.06;10363418;28;20139;-61
2021/11/09 21:50:25;;;;;;;7.07;5.60;;;;;;;8.70;63.23;101150.06;10367256;28;20659;-59
2021/11/09 21:55:27;;;;;;;5.68;4.60;;;;;;;8.58;63.48;101156.94;10364706;28;20100;-59
2021/11/09 22:00:28;;;;;;;8.95;6.68;;;;;;;8.46;63.82;101159.34;10357484;28;20138;-60
2021/11/09 22:05:30;;;;;;;6.60;4.85;;;;;;;8.42;64.44;101163.09;10341607;28;20052;-62
2021/11/09 22:10:31;;;;;;;5.85;4.72;;;;;;;8.39;64.61;101175.66;10331709;28;20153;-58
2021/11/09 22:15:33;;;;;;;7.50;5.47;;;;;;;8.25;64.58;101164.03;10328414;28;20050;-60
2021/11/09 22:20:39;;;;;;;7.80;5.75;;;;;;;8.35;65.09;101169.69;10337648;28;20046;-59
2021/11/09 22:25:40;;;;;;;6.07;5.10;;;;;;;8.31;65.22;101158.38;10328450;28;20051;-58
2021/11/09 22:30:42;;;;;;;8.20;5.93;;;;;;;8.23;64.82;101157.97;10318987;28;20462;-59
2021/11/09 22:35:44;;;;;;;7.57;5.72;;;;;;;8.17;64.62;101152.13;10319864;28;20448;-62
2021/11/09 22:40:46;;;;;;;7.05;5.93;;;;;;;8.18;64.82;101169.75;10314524;28;20708;-60
2021/11/09 22:45:48;;;;;;;8.63;6.20;;;;;;;8.19;65.19;101171.50;10327062;28;20065;-61
2021/11/09 22:50:49;;;;;;;6.20;5.57;;;;;;;8.29;64.99;101172.69;10284666;28;20050;-59
2021/11/09 22:55:51;;;;;;;8.23;5.75;;;;;;;8.18;65.19;101159.16;10288566;28;20042;-59
2021/11/09 23:00:52;;;;;;;6.50;5.90;;;;;;;8.05;65.22;101165.16;10286946;28;20077;-59
2021/11/09 23:05:57;;;;;;;8.15;6.25;;;;;;;7.97;65.67;101152.31;10286858;28;20073;-58
2021/11/09 23:10:59;;;;;;;7.35;6.25;;;;;;;7.97;66.37;101167.34;10282544;28;20074;-58
2021/11/09 23:16:01;;;;;;;9.73;7.03;;;;;;;7.85;66.49;101162.72;10324612;28;20534;-59
2021/11/09 23:21:03;;;;;;;7.97;6.90;;;;;;;7.70;66.36;101157.34;10319805;28;20053;-59
2021/11/09 23:26:04;;;;;;;8.93;7.45;;;;;;;7.59;66.56;101155.25;10321330;28;20073;-57
2021/11/09 23:31:06;;;;;;;9.30;7.20;;;;;;;7.42;66.67;101148.19;10323760;28;20074;-58
2021/11/09 23:36:08;;;;;;;9.13;7.05;;;;;;;7.35;67.28;101145.97;10325457;28;20129;-61
2021/11/09 23:41:09;;;;;;;9.88;7.90;;;;;;;7.06;67.27;101117.41;10322198;28;20066;-61
2021/11/09 23:46:11;;;;;;;7.75;6.90;;;;;;;7.28;67.16;101126.91;10334221;28;20805;-58
2021/11/09 23:51:12;;;;;;;10.57;7.35;;;;;;;7.21;67.38;101136.09;10338618;28;20391;-58
2021/11/09 23:56:15;;;;;;;9.45;7.25;;;;;;;7.18;66.94;101130.97;10335755;28;20053;-57
